Monte Santo de Minas, Brazil
Current Conditions -  °F | °C
As of 6:00 PM on Wednesday 17 Dec 2014 (Local Time) from SBRP Reporting Station
Few Clouds Few Clouds  
Wind Chill: 91°   Ceiling: Unl
Heat Index: 91°   Visibility: 6mi
Dew Point: 57°   Wind: 7mph
Humidity: 31%   Direction: 250°WSW
Pressure: 29.8"   Gusts: NA
Location:  21.19°S, 46.98°W
Report Text: SBRP 172000Z 25006KT 9999 FEW049 33/14 Q1009
Loading
Personal Weather Stations






























Interactive Weather Map New forecast layout! Learn more

10-Day Weather Forecast

Advertisements
Track Severe Weather on mobile